Terminal Aerodrome Forecast
Issued by NWS

Home | Current Version | Previous Version | Graphics & Text | Print | Product List | Glossary On
Versions: 1 2 3 4 5 6 7 8 9 10 11 12 13 14 15 16 17 18 19 20
000
FTUS43 KICT 030831 AAA
TAFCNU
TAF AMD
KCNU 030831Z 0309/0406 VRB05KT 3SM BR VCTS SCT018CB BKN150
      TEMPO 0309/0312 1SM BR SCT002 BKN010
     FM031200 VRB05KT P6SM BKN150
     FM031500 03008KT P6SM SCT050
     FM040100 07008KT P6SM SCT050=

USA.gov is the U.S. government's official web portal to all federal, state and local government web resources and services.